createdAt,value
2019-05-29T00:01:21.969Z,0.80
2019-05-29T00:03:51.388Z,1.10
2019-05-29T00:06:21.006Z,1.00
2019-05-29T00:08:50.097Z,1.30
2019-05-29T00:11:19.408Z,0.83
2019-05-29T00:13:48.508Z,1.00
2019-05-29T00:16:18.700Z,0.83
2019-05-29T00:18:47.755Z,1.10
2019-05-29T00:21:17.138Z,1.20
2019-05-29T00:23:46.052Z,1.03
2019-05-29T00:26:15.125Z,1.10
2019-05-29T00:28:44.072Z,0.97
2019-05-29T00:31:13.981Z,1.03
2019-05-29T00:33:43.438Z,1.10
2019-05-29T00:36:12.622Z,1.47
2019-05-29T00:38:41.445Z,1.63
2019-05-29T00:41:10.838Z,1.20
2019-05-29T00:43:40.314Z,0.80
2019-05-29T00:46:09.531Z,1.10
2019-05-29T00:48:38.774Z,1.13
2019-05-29T00:51:08.919Z,1.00
2019-05-29T00:53:38.184Z,1.13
2019-05-29T00:56:08.500Z,1.30
2019-05-29T00:58:41.351Z,1.10
2019-05-29T01:03:58.256Z,1.20
2019-05-29T01:06:27.125Z,1.30
2019-05-29T01:08:56.282Z,1.00
2019-05-29T01:11:25.358Z,1.03
2019-05-29T01:13:54.447Z,1.20
2019-05-29T01:16:23.588Z,1.30
2019-05-29T01:18:54.373Z,1.30
2019-05-29T01:21:23.294Z,1.30
2019-05-29T01:23:52.199Z,1.27
2019-05-29T01:26:21.286Z,1.10
2019-05-29T01:28:50.427Z,1.13
2019-05-29T01:31:19.845Z,1.30
2019-05-29T01:33:48.933Z,1.50
2019-05-29T01:36:18.073Z,1.40
2019-05-29T01:38:46.975Z,1.50
2019-05-29T01:41:17.131Z,1.40
2019-05-29T01:43:46.050Z,1.07
2019-05-29T01:46:15.214Z,1.37
2019-05-29T01:48:44.378Z,1.23
2019-05-29T01:51:13.539Z,1.20
2019-05-29T01:53:42.959Z,1.67
2019-05-29T01:56:11.835Z,1.60
2019-05-29T01:58:41.431Z,2.33
2019-05-29T02:01:10.355Z,2.00
2019-05-29T02:03:39.449Z,1.93
2019-05-29T02:06:08.514Z,2.17
2019-05-29T02:08:37.601Z,2.00
2019-05-29T02:11:06.598Z,2.10
2019-05-29T02:13:35.968Z,1.80
2019-05-29T02:16:05.698Z,1.80
2019-05-29T02:18:34.973Z,1.73
2019-05-29T02:21:04.096Z,1.53
2019-05-29T02:23:33.355Z,1.70
2019-05-29T02:26:02.915Z,1.60
2019-05-29T02:28:32.071Z,1.33
2019-05-29T02:31:01.020Z,1.30
2019-05-29T02:33:29.850Z,1.47
2019-05-29T02:35:59.052Z,1.40
2019-05-29T02:38:29.128Z,1.23
2019-05-29T02:40:58.650Z,1.60
2019-05-29T02:43:29.745Z,1.73
2019-05-29T02:45:58.894Z,1.80
2019-05-29T02:48:29.609Z,1.67
2019-05-29T02:50:58.861Z,1.60
2019-05-29T02:53:28.680Z,1.57
2019-05-29T02:55:58.051Z,1.87
2019-05-29T02:58:28.252Z,1.40
2019-05-29T03:00:57.894Z,1.60
2019-05-29T03:03:29.555Z,1.60
2019-05-29T03:05:59.049Z,1.47
2019-05-29T03:08:31.216Z,1.67
2019-05-29T03:10:59.286Z,1.60
2019-05-29T03:13:29.784Z,1.33
2019-05-29T03:16:10.469Z,1.60
2019-05-29T03:18:30.459Z,1.83
2019-05-29T03:21:00.946Z,1.70
2019-05-29T03:23:30.906Z,1.63
2019-05-29T03:26:00.650Z,1.50
2019-05-29T03:28:30.006Z,1.30
2019-05-29T03:30:59.184Z,2.03
2019-05-29T03:33:32.449Z,1.33
2019-05-29T03:35:58.787Z,1.23
2019-05-29T03:38:47.263Z,1.30
2019-05-29T03:41:16.479Z,1.50
2019-05-29T03:43:45.665Z,1.57
2019-05-29T03:46:30.423Z,1.60
2019-05-29T03:48:45.453Z,1.80
2019-05-29T03:51:14.653Z,2.00
2019-05-29T03:53:43.776Z,1.70
2019-05-29T03:56:12.650Z,2.03
2019-05-29T03:58:41.574Z,1.83
2019-05-29T04:01:10.674Z,2.47
2019-05-29T04:03:40.278Z,2.80
2019-05-29T04:06:09.726Z,2.93
2019-05-29T04:08:38.894Z,3.27
2019-05-29T04:11:08.401Z,2.90
2019-05-29T04:13:38.779Z,3.13
2019-05-29T04:16:09.532Z,3.00
2019-05-29T04:18:40.246Z,2.33
2019-05-29T04:21:10.774Z,2.57
2019-05-29T04:23:43.046Z,2.30
2019-05-29T04:26:15.908Z,2.27
2019-05-29T04:28:45.456Z,2.20
2019-05-29T04:31:14.728Z,2.30
2019-05-29T04:33:43.844Z,2.10
2019-05-29T04:36:13.724Z,2.27
2019-05-29T04:38:44.932Z,2.20
2019-05-29T04:43:59.730Z,2.20
2019-05-29T04:46:30.000Z,1.80
2019-05-29T04:48:59.884Z,1.80
2019-05-29T04:51:31.068Z,1.87
2019-05-29T04:54:00.235Z,1.87
2019-05-29T04:56:29.126Z,1.70
2019-05-29T04:58:58.294Z,1.80
2019-05-29T05:01:27.110Z,1.70
2019-05-29T05:03:56.183Z,2.10
2019-05-29T05:06:25.861Z,1.60
2019-05-29T05:08:54.678Z,1.90
2019-05-29T05:11:24.693Z,2.23
2019-05-29T05:13:53.956Z,1.90
2019-05-29T05:16:23.406Z,1.90
2019-05-29T05:18:53.062Z,1.70
2019-05-29T05:21:22.255Z,1.63
2019-05-29T05:23:51.761Z,1.50
2019-05-29T05:26:20.879Z,1.40
2019-05-29T05:28:49.793Z,1.20
2019-05-29T05:31:19.027Z,1.40
2019-05-29T05:33:48.061Z,1.30
2019-05-29T05:36:36.800Z,1.40
2019-05-29T05:39:07.711Z,1.20
2019-05-29T05:41:36.917Z,1.83
2019-05-29T05:44:05.782Z,1.80
2019-05-29T05:46:35.041Z,1.50
2019-05-29T05:49:04.328Z,1.60
2019-05-29T05:51:33.854Z,1.20
2019-05-29T05:54:05.895Z,1.37
2019-05-29T05:56:35.570Z,1.33
2019-05-29T05:59:04.906Z,1.30
2019-05-29T06:01:35.898Z,1.20
2019-05-29T06:04:04.972Z,1.50
2019-05-29T06:06:34.196Z,1.00
2019-05-29T06:09:03.161Z,1.10
2019-05-29T06:11:32.514Z,1.37
2019-05-29T06:14:01.873Z,1.20
2019-05-29T06:16:31.813Z,1.27
2019-05-29T06:19:01.697Z,1.33
2019-05-29T06:21:30.534Z,1.20
2019-05-29T06:23:59.581Z,1.20
2019-05-29T06:26:28.886Z,1.27
2019-05-29T06:31:35.149Z,1.00
2019-05-29T06:34:04.511Z,1.17
2019-05-29T06:36:33.519Z,1.00
2019-05-29T06:39:03.249Z,0.97
2019-05-29T06:41:33.550Z,1.00
2019-05-29T06:44:02.795Z,1.20
2019-05-29T06:46:32.042Z,1.10
2019-05-29T06:49:01.405Z,1.00
2019-05-29T06:51:30.356Z,1.00
2019-05-29T06:54:02.089Z,1.20
2019-05-29T06:56:31.510Z,1.37
2019-05-29T06:59:00.714Z,1.57
2019-05-29T07:01:29.696Z,1.37
2019-05-29T07:04:11.108Z,1.00
2019-05-29T07:06:29.334Z,1.27
2019-05-29T07:08:58.122Z,1.10
2019-05-29T07:11:26.916Z,1.13
2019-05-29T07:13:55.726Z,0.90
2019-05-29T07:16:43.099Z,1.10
2019-05-29T07:21:29.208Z,1.30
2019-05-29T07:23:58.016Z,0.73
2019-05-29T07:26:26.801Z,1.00
2019-05-29T07:29:07.555Z,0.90
2019-05-29T07:31:26.808Z,1.10
2019-05-29T07:33:55.985Z,0.90
2019-05-29T07:36:25.039Z,1.23
2019-05-29T07:39:02.809Z,1.50
2019-05-29T07:41:24.930Z,1.10
2019-05-29T07:43:54.265Z,0.83
2019-05-29T07:46:23.045Z,1.00
2019-05-29T07:48:52.192Z,1.13
2019-05-29T07:51:21.766Z,1.10
2019-05-29T07:53:50.914Z,1.27
2019-05-29T07:56:23.108Z,1.17
2019-05-29T07:59:01.557Z,1.00
2019-05-29T08:01:21.219Z,0.80
2019-05-29T08:03:50.321Z,1.20
2019-05-29T08:06:19.546Z,1.00
2019-05-29T08:08:49.522Z,0.83
2019-05-29T08:11:18.516Z,1.07
2019-05-29T08:13:47.909Z,1.20
2019-05-29T08:16:16.818Z,1.17
2019-05-29T08:18:49.688Z,1.20
2019-05-29T08:21:17.305Z,1.30
2019-05-29T08:23:46.808Z,1.00
2019-05-29T08:26:15.970Z,0.97
2019-05-29T08:28:44.868Z,0.93
2019-05-29T08:31:14.008Z,1.20
2019-05-29T08:33:42.943Z,1.57
2019-05-29T08:36:11.798Z,1.10
2019-05-29T08:38:43.790Z,1.10
2019-05-29T08:41:12.083Z,1.13
2019-05-29T08:43:42.370Z,1.17
2019-05-29T08:46:11.811Z,1.17
2019-05-29T08:48:41.823Z,1.70
2019-05-29T08:51:11.192Z,1.20
2019-05-29T08:53:40.319Z,1.22
2019-05-29T08:56:09.863Z,1.13
2019-05-29T08:58:38.960Z,1.20
2019-05-29T09:01:07.786Z,1.30
2019-05-29T09:03:37.376Z,1.00
2019-05-29T09:06:09.608Z,1.30
2019-05-29T09:08:38.056Z,1.07
2019-05-29T09:11:07.344Z,1.30
2019-05-29T09:13:36.285Z,1.00
2019-05-29T09:16:05.242Z,1.37
2019-05-29T09:18:34.078Z,1.20
2019-05-29T09:21:04.261Z,1.30
2019-05-29T09:23:33.507Z,1.20
2019-05-29T09:26:14.108Z,1.80
2019-05-29T09:28:33.792Z,1.40
2019-05-29T09:31:02.907Z,1.43
2019-05-29T09:33:33.174Z,1.57
2019-05-29T09:36:02.764Z,1.43
2019-05-29T09:38:32.032Z,1.70
2019-05-29T09:41:01.223Z,1.70
2019-05-29T09:43:30.957Z,1.30
2019-05-29T09:46:02.322Z,1.30
2019-05-29T09:48:31.636Z,1.30
2019-05-29T09:51:19.965Z,1.10
2019-05-29T09:53:31.739Z,1.23
2019-05-29T09:56:00.907Z,1.20
2019-05-29T09:58:30.198Z,1.30
2019-05-29T10:01:19.884Z,0.80
2019-05-29T10:03:30.229Z,1.23
2019-05-29T10:05:59.554Z,0.97
2019-05-29T10:08:30.147Z,1.20
2019-05-29T10:11:05.937Z,1.10
2019-05-29T10:13:31.321Z,0.80
2019-05-29T10:16:00.882Z,1.00
2019-05-29T10:18:32.409Z,1.17
2019-05-29T10:21:01.421Z,1.07
2019-05-29T10:23:30.889Z,0.80
2019-05-29T10:26:02.762Z,1.00
2019-05-29T10:28:49.444Z,1.10
2019-05-29T10:31:04.082Z,1.00
2019-05-29T10:33:33.954Z,0.93
2019-05-29T10:36:04.260Z,1.00
2019-05-29T10:38:33.399Z,1.30
2019-05-29T10:41:06.898Z,1.37
2019-05-29T10:43:34.860Z,1.40
2019-05-29T10:46:04.739Z,1.43
2019-05-29T10:48:33.956Z,1.50
2019-05-29T10:51:03.254Z,1.30
2019-05-29T10:53:32.298Z,1.27
2019-05-29T10:56:01.596Z,1.30
2019-05-29T10:58:30.531Z,1.30
2019-05-29T11:00:59.447Z,1.30
2019-05-29T11:03:28.833Z,1.17
2019-05-29T11:05:58.289Z,1.40
2019-05-29T11:08:27.493Z,1.20
2019-05-29T11:10:56.503Z,1.53
2019-05-29T11:13:25.358Z,1.20
2019-05-29T11:15:54.798Z,1.13
2019-05-29T11:18:24.110Z,1.10
2019-05-29T11:20:53.431Z,1.27
2019-05-29T11:23:22.680Z,1.17
2019-05-29T11:25:52.103Z,1.00
2019-05-29T11:28:21.309Z,1.80
2019-05-29T11:30:51.930Z,1.77
2019-05-29T11:33:21.237Z,1.40
2019-05-29T11:36:03.305Z,1.40
2019-05-29T11:38:21.224Z,1.60
2019-05-29T11:41:04.907Z,1.13
2019-05-29T11:43:21.428Z,1.13
2019-05-29T11:45:51.151Z,1.10
2019-05-29T11:48:20.202Z,1.20
2019-05-29T11:50:50.028Z,1.13
2019-05-29T11:53:19.159Z,1.37
2019-05-29T11:55:48.332Z,1.20
2019-05-29T11:58:30.783Z,1.20
2019-05-29T12:00:48.493Z,1.30
2019-05-29T12:03:17.371Z,1.03
2019-05-29T12:05:46.390Z,1.57
2019-05-29T12:08:15.579Z,1.10
2019-05-29T12:10:44.457Z,1.50
2019-05-29T12:13:13.430Z,1.47
2019-05-29T12:15:42.522Z,1.17
2019-05-29T12:18:23.566Z,1.50
2019-05-29T12:20:42.727Z,1.20
2019-05-29T12:23:25.107Z,1.40
2019-05-29T12:25:42.273Z,1.40
2019-05-29T12:28:11.460Z,1.50
2019-05-29T12:30:40.496Z,1.60
2019-05-29T12:33:09.654Z,1.20
2019-05-29T12:35:38.855Z,1.40
2019-05-29T12:38:08.237Z,1.20
2019-05-29T12:40:37.641Z,1.40
2019-05-29T12:43:25.569Z,1.57
2019-05-29T12:45:38.081Z,1.47
2019-05-29T12:48:13.146Z,1.60
2019-05-29T12:50:38.343Z,1.40
2019-05-29T12:53:07.661Z,1.27
2019-05-29T12:55:36.456Z,1.30
2019-05-29T12:58:05.842Z,1.43
2019-05-29T13:00:34.938Z,1.53
2019-05-29T13:03:05.147Z,1.27
2019-05-29T13:05:34.519Z,1.57
2019-05-29T13:08:04.975Z,1.40
2019-05-29T13:10:34.430Z,1.27
2019-05-29T13:13:08.513Z,1.30
2019-05-29T13:15:34.037Z,1.50
2019-05-29T13:18:07.957Z,1.30
2019-05-29T13:20:33.810Z,1.40
2019-05-29T13:23:06.747Z,1.40
2019-05-29T13:25:34.149Z,1.40
2019-05-29T13:28:04.335Z,1.37
2019-05-29T13:30:33.639Z,1.20
2019-05-29T13:33:06.063Z,1.20
2019-05-29T13:35:33.552Z,1.43
2019-05-29T13:38:03.282Z,1.20
2019-05-29T13:40:32.523Z,1.37
2019-05-29T13:43:09.766Z,1.70
2019-05-29T13:45:31.940Z,1.60
2019-05-29T13:48:01.534Z,1.37
2019-05-29T13:50:30.615Z,1.20
2019-05-29T13:52:59.457Z,1.30
2019-05-29T13:55:28.695Z,1.30
2019-05-29T13:57:57.827Z,1.63
2019-05-29T14:00:33.178Z,1.30
2019-05-29T14:02:58.380Z,1.30
2019-05-29T14:05:27.724Z,1.70
2019-05-29T14:07:56.515Z,1.43
2019-05-29T14:10:25.454Z,1.60
2019-05-29T14:12:54.663Z,1.30
2019-05-29T14:15:24.032Z,1.17
2019-05-29T14:17:52.821Z,1.20
2019-05-29T14:20:22.284Z,1.13
2019-05-29T14:22:51.698Z,1.60
2019-05-29T14:25:21.551Z,1.90
2019-05-29T14:27:50.909Z,1.30
2019-05-29T14:30:20.811Z,1.70
2019-05-29T14:32:50.073Z,1.60
2019-05-29T14:35:19.329Z,1.50
2019-05-29T14:37:48.426Z,1.60
2019-05-29T14:40:17.579Z,1.50
2019-05-29T14:42:46.721Z,1.70
2019-05-29T14:45:15.991Z,1.50
2019-05-29T14:47:44.910Z,1.73
2019-05-29T14:50:13.927Z,1.40
2019-05-29T14:52:43.207Z,1.40
2019-05-29T14:55:16.117Z,1.43
2019-05-29T14:57:43.522Z,1.43
2019-05-29T15:00:23.131Z,1.60
2019-05-29T15:02:43.961Z,1.37
2019-05-29T15:05:14.969Z,1.70
2019-05-29T15:07:44.348Z,1.50
2019-05-29T15:10:24.907Z,1.30
2019-05-29T15:12:45.798Z,1.73
2019-05-29T15:15:16.433Z,1.50
2019-05-29T15:17:45.634Z,1.57
2019-05-29T15:20:17.195Z,1.47
2019-05-29T15:22:46.345Z,1.50
2019-05-29T15:25:23.428Z,1.50
2019-05-29T15:27:45.928Z,1.80
2019-05-29T15:30:22.041Z,1.40
2019-05-29T15:32:46.910Z,1.73
2019-05-29T15:35:19.774Z,1.20
2019-05-29T15:37:47.893Z,1.20
2019-05-29T15:40:17.264Z,1.40
2019-05-29T15:42:46.531Z,1.67
2019-05-29T15:45:16.192Z,1.60
2019-05-29T15:47:45.236Z,1.70
2019-05-29T15:50:16.116Z,1.50
2019-05-29T15:52:45.134Z,1.30
2019-05-29T15:55:28.187Z,1.27
2019-05-29T15:57:45.761Z,1.30
2019-05-29T16:00:15.713Z,1.73
2019-05-29T16:02:48.192Z,1.80
2019-05-29T16:05:17.252Z,1.67
2019-05-29T16:07:46.499Z,1.37
2019-05-29T16:10:18.686Z,1.47
2019-05-29T16:12:47.337Z,1.70
2019-05-29T16:15:17.594Z,1.60
2019-05-29T16:17:46.695Z,1.60
2019-05-29T16:20:18.392Z,1.30
2019-05-29T16:22:47.570Z,1.33
2019-05-29T16:25:16.965Z,1.60
2019-05-29T16:27:45.963Z,1.40
2019-05-29T16:30:16.075Z,1.40
2019-05-29T16:32:45.840Z,1.40
2019-05-29T16:35:15.666Z,1.50
2019-05-29T16:37:45.230Z,1.20
2019-05-29T16:40:15.945Z,1.30
2019-05-29T16:42:45.393Z,1.17
2019-05-29T16:45:16.196Z,1.30
2019-05-29T16:47:45.726Z,1.40
2019-05-29T16:50:17.297Z,1.40
2019-05-29T16:52:46.819Z,1.30
2019-05-29T16:55:17.175Z,1.10
2019-05-29T16:57:46.465Z,1.23
2019-05-29T17:00:17.440Z,1.37
2019-05-29T17:02:47.411Z,1.30
2019-05-29T17:05:17.739Z,1.30
2019-05-29T17:07:46.875Z,1.20
2019-05-29T17:10:18.268Z,1.23
2019-05-29T17:12:48.215Z,1.40
2019-05-29T17:15:20.581Z,1.10
2019-05-29T17:17:50.532Z,1.30
2019-05-29T17:20:30.018Z,1.13
2019-05-29T17:23:00.134Z,1.17
2019-05-29T17:25:29.752Z,0.97
2019-05-29T17:28:00.670Z,1.50
2019-05-29T17:30:32.540Z,1.10
2019-05-29T17:33:01.760Z,1.00
2019-05-29T17:35:30.983Z,1.90
2019-05-29T17:37:59.824Z,1.40
2019-05-29T17:40:29.318Z,1.00
2019-05-29T17:42:58.370Z,1.10
2019-05-29T17:45:27.698Z,1.00
2019-05-29T17:47:56.834Z,1.00
2019-05-29T17:50:26.711Z,1.00
2019-05-29T17:52:56.074Z,1.20
2019-05-29T17:55:26.160Z,1.23
2019-05-29T17:57:55.689Z,1.00
2019-05-29T18:00:25.020Z,1.10
2019-05-29T18:02:53.931Z,1.10
2019-05-29T18:05:24.715Z,1.10
2019-05-29T18:07:53.911Z,1.00
2019-05-29T18:10:24.208Z,0.90
2019-05-29T18:12:53.569Z,1.07
2019-05-29T18:15:23.919Z,0.90
2019-05-29T18:17:53.351Z,1.20
2019-05-29T18:20:23.700Z,1.07
2019-05-29T18:22:55.177Z,1.47
2019-05-29T18:25:25.930Z,1.10
2019-05-29T18:27:55.271Z,1.17
2019-05-29T18:30:24.729Z,0.87
2019-05-29T18:32:53.687Z,1.03
2019-05-29T18:35:22.903Z,1.10
2019-05-29T18:37:52.394Z,0.90
2019-05-29T18:40:22.379Z,0.90
2019-05-29T18:42:51.838Z,1.03
2019-05-29T18:45:24.500Z,1.00
2019-05-29T18:47:53.232Z,1.20
2019-05-29T18:50:23.362Z,1.20
2019-05-29T18:52:52.441Z,1.03
2019-05-29T18:55:22.699Z,1.40
2019-05-29T18:57:51.624Z,1.83
2019-05-29T19:00:21.289Z,1.97
2019-05-29T19:02:50.298Z,1.63
2019-05-29T19:05:19.569Z,1.30
2019-05-29T19:07:48.882Z,1.10
2019-05-29T19:10:18.210Z,0.90
2019-05-29T19:12:47.492Z,0.90
2019-05-29T19:15:17.613Z,1.00
2019-05-29T19:17:46.502Z,1.00
2019-05-29T19:20:15.563Z,0.80
2019-05-29T19:22:44.872Z,1.03
2019-05-29T19:25:15.143Z,1.23
2019-05-29T19:27:44.644Z,1.00
2019-05-29T19:30:13.627Z,0.90
2019-05-29T19:32:43.357Z,1.00
2019-05-29T19:35:12.373Z,1.10
2019-05-29T19:37:41.471Z,1.23
2019-05-29T19:40:11.037Z,1.00
2019-05-29T19:42:40.097Z,1.10
2019-05-29T19:45:10.186Z,1.07
2019-05-29T19:47:39.356Z,0.90
2019-05-29T19:50:11.398Z,1.20
2019-05-29T19:52:42.018Z,1.00
2019-05-29T19:55:10.941Z,1.30
2019-05-29T19:57:54.628Z,1.10
2019-05-29T20:00:11.882Z,1.10
2019-05-29T20:02:41.492Z,1.10
2019-05-29T20:05:10.506Z,1.33
2019-05-29T20:07:39.446Z,1.30
2019-05-29T20:10:08.950Z,1.40
2019-05-29T20:12:38.336Z,1.30
2019-05-29T20:15:08.818Z,1.00
2019-05-29T20:17:38.692Z,1.10
2019-05-29T20:20:09.340Z,1.40
2019-05-29T20:22:39.257Z,0.97
2019-05-29T20:25:12.830Z,0.80
2019-05-29T20:27:40.511Z,1.00
2019-05-29T20:30:14.808Z,1.00
2019-05-29T20:32:43.753Z,1.20
2019-05-29T20:35:12.514Z,1.30
2019-05-29T20:37:42.340Z,1.47
2019-05-29T20:40:11.981Z,1.43
2019-05-29T20:42:42.451Z,1.20
2019-05-29T20:45:13.045Z,1.30
2019-05-29T20:47:42.200Z,1.20
2019-05-29T20:50:11.564Z,1.43
2019-05-29T20:52:41.437Z,1.40
2019-05-29T20:55:10.843Z,1.20
2019-05-29T20:57:40.098Z,1.33
2019-05-29T21:00:10.031Z,1.40
2019-05-29T21:02:40.445Z,1.30
2019-05-29T21:05:10.182Z,1.50
2019-05-29T21:07:40.839Z,1.70
2019-05-29T21:10:11.788Z,1.27
2019-05-29T21:12:44.375Z,1.65
2019-05-29T21:15:12.512Z,1.13
2019-05-29T21:17:42.174Z,1.20
2019-05-29T21:20:11.261Z,1.20
2019-05-29T21:22:40.869Z,1.10
2019-05-29T21:25:15.034Z,1.30
2019-05-29T21:27:45.407Z,1.10
2019-05-29T21:30:12.252Z,1.47
2019-05-29T21:32:41.912Z,2.07
2019-05-29T21:35:11.447Z,3.00
2019-05-29T21:37:40.777Z,4.23
2019-05-29T21:40:10.166Z,3.97
2019-05-29T21:42:38.913Z,4.57
2019-05-29T21:45:08.049Z,3.77
2019-05-29T21:47:37.168Z,6.83
2019-05-29T21:50:06.512Z,5.87
2019-05-29T21:52:37.366Z,4.40
2019-05-29T21:55:07.063Z,3.20
2019-05-29T21:57:37.584Z,3.80
2019-05-29T22:00:10.746Z,1.93
2019-05-29T22:02:40.075Z,1.90
2019-05-29T22:05:09.250Z,1.60
2019-05-29T22:07:38.576Z,1.70
2019-05-29T22:10:08.103Z,1.63
2019-05-29T22:12:37.371Z,1.47
2019-05-29T22:15:06.786Z,1.27
2019-05-29T22:17:36.036Z,1.43
2019-05-29T22:20:05.220Z,1.40
2019-05-29T22:22:34.250Z,1.20
2019-05-29T22:25:03.455Z,1.70
2019-05-29T22:27:32.592Z,1.57
2019-05-29T22:30:01.528Z,1.47
2019-05-29T22:32:30.660Z,1.40
2019-05-29T22:34:59.689Z,1.70
2019-05-29T22:37:28.500Z,1.57
2019-05-29T22:39:57.767Z,1.50
2019-05-29T22:42:26.949Z,1.40
2019-05-29T22:44:56.156Z,1.40
2019-05-29T22:47:25.064Z,1.20
2019-05-29T22:49:55.790Z,1.27
2019-05-29T22:52:24.818Z,1.50
2019-05-29T22:54:53.879Z,1.40
2019-05-29T22:57:22.999Z,1.27
2019-05-29T22:59:51.991Z,1.37
2019-05-29T23:02:21.066Z,1.40
2019-05-29T23:04:52.051Z,1.30
2019-05-29T23:07:21.219Z,1.33
2019-05-29T23:09:50.226Z,1.20
2019-05-29T23:12:20.152Z,1.27
2019-05-29T23:14:49.955Z,1.50
2019-05-29T23:17:19.733Z,1.40
2019-05-29T23:19:50.231Z,1.23
2019-05-29T23:22:19.596Z,1.40
2019-05-29T23:24:48.512Z,1.33
2019-05-29T23:27:17.507Z,1.30
2019-05-29T23:29:49.169Z,1.17
2019-05-29T23:32:17.159Z,1.37
2019-05-29T23:34:45.951Z,1.10
2019-05-29T23:37:14.719Z,1.67
2019-05-29T23:39:43.936Z,1.27
2019-05-29T23:42:13.042Z,1.37
2019-05-29T23:44:42.288Z,1.40
2019-05-29T23:47:11.463Z,1.60
2019-05-29T23:49:40.806Z,1.40
2019-05-29T23:52:09.612Z,1.23
2019-05-29T23:54:38.767Z,1.20
2019-05-29T23:57:07.885Z,1.20
2019-05-29T23:59:36.954Z,1.13
